createdAt,value
2023-05-02T00:00:36.926Z,74.40
2023-05-02T00:03:07.018Z,74.80
2023-05-02T00:05:35.875Z,75.10
2023-05-02T00:08:03.761Z,75.30
2023-05-02T00:10:31.641Z,75.40
2023-05-02T00:12:59.482Z,75.40
2023-05-02T00:15:27.985Z,75.60
2023-05-02T00:17:55.938Z,75.80
2023-05-02T00:20:25.561Z,75.80
2023-05-02T00:22:53.369Z,76.10
2023-05-02T00:25:21.278Z,76.10
2023-05-02T00:27:50.951Z,76.20
2023-05-02T00:30:21.081Z,76.20
2023-05-02T00:32:49.458Z,76.40
2023-05-02T00:35:17.537Z,76.30
2023-05-02T00:37:46.810Z,76.50
2023-05-02T00:40:15.688Z,76.40
2023-05-02T00:42:43.542Z,76.60
2023-05-02T00:45:12.396Z,76.50
2023-05-02T00:47:40.384Z,76.50
2023-05-02T00:50:09.175Z,76.60
2023-05-02T00:52:38.247Z,77.10
2023-05-02T00:55:08.396Z,76.50
2023-05-02T00:57:36.305Z,76.80
2023-05-02T01:00:04.861Z,76.90
2023-05-02T01:02:39.138Z,77.00
2023-05-02T01:05:16.723Z,77.20
2023-05-02T01:08:02.796Z,77.60
2023-05-02T01:10:48.729Z,78.00
2023-05-02T01:13:22.839Z,78.20
2023-05-02T01:15:52.782Z,77.90
2023-05-02T01:18:23.806Z,78.30
2023-05-02T01:20:57.531Z,78.60
2023-05-02T01:23:31.844Z,78.60
2023-05-02T01:26:15.959Z,78.80
2023-05-02T01:29:06.556Z,79.00
2023-05-02T01:31:38.013Z,80.20
2023-05-02T01:34:10.027Z,79.00
2023-05-02T01:36:40.219Z,78.80
2023-05-02T01:39:10.867Z,78.60
2023-05-02T01:41:40.118Z,78.20
2023-05-02T01:44:11.482Z,78.00
2023-05-02T01:46:43.067Z,77.70
2023-05-02T01:49:12.605Z,77.40
2023-05-02T01:51:46.245Z,77.40
2023-05-02T01:54:15.854Z,77.40
2023-05-02T01:56:45.831Z,77.30
2023-05-02T01:59:19.480Z,77.60
2023-05-02T02:01:48.042Z,77.50
2023-05-02T02:04:17.216Z,77.20
2023-05-02T02:06:49.967Z,77.40
2023-05-02T02:09:17.946Z,77.50
2023-05-02T02:11:50.226Z,77.30
2023-05-02T02:14:22.959Z,77.60
2023-05-02T02:16:54.557Z,77.80
2023-05-02T02:19:23.629Z,77.60
2023-05-02T02:21:53.094Z,77.30
2023-05-02T02:24:22.794Z,77.40
2023-05-02T02:26:51.819Z,77.20
2023-05-02T02:29:20.996Z,76.90
2023-05-02T02:31:48.749Z,77.00
2023-05-02T02:34:16.788Z,76.90
2023-05-02T02:36:49.639Z,77.00
2023-05-02T02:39:35.198Z,76.80
2023-05-02T02:42:11.485Z,77.10
2023-05-02T02:45:00.194Z,76.80
2023-05-02T02:47:32.659Z,76.60
2023-05-02T02:50:12.545Z,75.90
2023-05-02T02:52:51.410Z,75.80
2023-05-02T02:55:35.509Z,75.70
2023-05-02T02:58:12.307Z,75.80
2023-05-02T03:00:42.086Z,75.60
2023-05-02T03:03:10.622Z,75.30
2023-05-02T03:05:38.972Z,75.20
2023-05-02T03:08:06.978Z,75.00
2023-05-02T03:10:35.440Z,74.90
2023-05-02T03:13:03.287Z,74.60
2023-05-02T03:16:00.845Z,74.60
2023-05-02T03:18:28.707Z,75.10
2023-05-02T03:20:56.765Z,74.50
2023-05-02T03:23:24.578Z,74.50
2023-05-02T03:25:52.524Z,74.50
2023-05-02T03:28:20.324Z,74.60
2023-05-02T03:30:49.721Z,74.70
2023-05-02T03:33:17.595Z,74.50
2023-05-02T03:35:45.765Z,74.50
2023-05-02T03:38:14.628Z,74.50
2023-05-02T03:40:42.426Z,74.70
2023-05-02T03:43:11.527Z,74.60
2023-05-02T03:45:39.306Z,74.40
2023-05-02T03:48:08.616Z,74.30
2023-05-02T03:50:36.445Z,74.40
2023-05-02T03:53:04.248Z,74.30
2023-05-02T03:55:32.171Z,74.20
2023-05-02T03:58:00.646Z,74.30
2023-05-02T04:00:28.457Z,74.30
2023-05-02T04:02:56.643Z,74.40
2023-05-02T04:05:25.911Z,74.50
2023-05-02T04:07:53.809Z,74.40
2023-05-02T04:10:21.621Z,74.30
2023-05-02T04:12:50.023Z,74.10
2023-05-02T04:15:18.113Z,74.00
2023-05-02T04:17:46.596Z,74.00
2023-05-02T04:20:15.800Z,74.20
2023-05-02T04:22:46.292Z,74.20
2023-05-02T04:25:14.217Z,74.40
2023-05-02T04:27:42.445Z,74.30
2023-05-02T04:30:11.438Z,74.30
2023-05-02T04:32:39.828Z,74.30
2023-05-02T04:35:08.184Z,74.20
2023-05-02T04:37:35.995Z,74.20
2023-05-02T04:40:06.574Z,73.90
2023-05-02T04:42:34.409Z,74.00
2023-05-02T04:45:02.152Z,73.80
2023-05-02T04:47:29.974Z,73.70
2023-05-02T04:49:58.058Z,73.70
2023-05-02T04:52:26.141Z,73.70
2023-05-02T04:54:53.889Z,74.30
2023-05-02T04:57:23.428Z,73.80
2023-05-02T04:59:51.442Z,73.80
2023-05-02T05:02:19.368Z,73.50
2023-05-02T05:04:47.601Z,73.50
2023-05-02T05:07:15.704Z,73.30
2023-05-02T05:09:43.526Z,73.40
2023-05-02T05:12:11.469Z,73.30
2023-05-02T05:14:40.610Z,73.20
2023-05-02T05:17:08.395Z,73.30
2023-05-02T05:19:36.266Z,73.90
2023-05-02T05:22:04.241Z,73.10
2023-05-02T05:24:32.080Z,73.00
2023-05-02T05:27:00.022Z,73.00
2023-05-02T05:29:27.873Z,72.70
2023-05-02T05:31:57.112Z,72.40
2023-05-02T05:34:25.146Z,72.20
2023-05-02T05:36:53.080Z,72.10
2023-05-02T05:39:20.927Z,72.10
2023-05-02T05:41:48.758Z,73.30
2023-05-02T05:44:16.869Z,71.90
2023-05-02T05:46:44.913Z,71.60
2023-05-02T05:49:14.085Z,71.90
2023-05-02T05:51:41.920Z,71.90
2023-05-02T05:54:09.767Z,71.70
2023-05-02T05:56:37.632Z,71.30
2023-05-02T05:59:05.418Z,70.90
2023-05-02T06:01:34.021Z,70.80
2023-05-02T06:04:03.012Z,70.70
2023-05-02T06:06:32.682Z,70.70
2023-05-02T06:09:00.678Z,70.70
2023-05-02T06:11:28.553Z,70.80
2023-05-02T06:13:56.432Z,70.90
2023-05-02T06:16:24.312Z,70.80
2023-05-02T06:18:53.770Z,71.00
2023-05-02T06:21:21.765Z,71.30
2023-05-02T06:23:51.083Z,71.50
2023-05-02T06:26:19.023Z,71.30
2023-05-02T06:28:46.960Z,71.60
2023-05-02T06:31:16.289Z,71.40
2023-05-02T06:33:44.241Z,71.50
2023-05-02T06:36:12.153Z,70.90
2023-05-02T06:38:39.962Z,70.20
2023-05-02T06:41:15.862Z,69.70
2023-05-02T06:43:45.122Z,69.70
2023-05-02T06:46:13.014Z,69.40
2023-05-02T06:48:40.814Z,69.20
2023-05-02T06:51:08.603Z,69.30
2023-05-02T06:53:36.508Z,69.30
2023-05-02T06:56:05.559Z,68.50
2023-05-02T06:58:34.782Z,68.40
2023-05-02T07:01:02.620Z,67.90
2023-05-02T07:03:30.737Z,67.90
2023-05-02T07:05:58.726Z,67.60
2023-05-02T07:08:26.574Z,67.20
2023-05-02T07:10:54.334Z,66.80
2023-05-02T07:13:22.104Z,66.90
2023-05-02T07:15:51.674Z,66.50
2023-05-02T07:18:19.743Z,66.60
2023-05-02T07:20:47.753Z,66.90
2023-05-02T07:23:15.921Z,66.90
2023-05-02T07:25:43.792Z,67.00
2023-05-02T07:28:11.736Z,67.00
2023-05-02T07:30:39.653Z,67.30
2023-05-02T07:33:08.869Z,67.60
2023-05-02T07:35:37.863Z,67.80
2023-05-02T07:38:05.713Z,68.00
2023-05-02T07:40:33.576Z,67.70
2023-05-02T07:43:02.637Z,67.00
2023-05-02T07:45:30.514Z,66.60
2023-05-02T07:47:58.428Z,66.50
2023-05-02T07:50:27.843Z,66.50
2023-05-02T07:52:56.847Z,66.60
2023-05-02T07:55:26.475Z,66.90
2023-05-02T07:57:54.483Z,66.80
2023-05-02T08:00:22.427Z,66.30
2023-05-02T08:02:50.522Z,66.20
2023-05-02T08:05:18.615Z,65.50
2023-05-02T08:07:48.542Z,65.90
2023-05-02T08:10:16.809Z,65.50
2023-05-02T08:12:44.576Z,65.50
2023-05-02T08:15:14.126Z,65.10
2023-05-02T08:17:42.057Z,65.30
2023-05-02T08:20:10.599Z,65.40
2023-05-02T08:22:38.500Z,64.60
2023-05-02T08:25:08.173Z,64.60
2023-05-02T08:27:36.334Z,64.30
2023-05-02T08:30:04.580Z,64.00
2023-05-02T08:32:33.555Z,64.00
2023-05-02T08:35:02.480Z,64.10
2023-05-02T08:37:30.466Z,64.50
2023-05-02T08:39:58.696Z,64.80
2023-05-02T08:42:29.858Z,64.20
2023-05-02T08:44:59.181Z,64.40
2023-05-02T08:47:30.892Z,64.40
2023-05-02T08:50:01.555Z,63.50
2023-05-02T08:52:30.504Z,61.90
2023-05-02T08:54:59.015Z,61.90
2023-05-02T08:57:30.608Z,60.70
2023-05-02T08:59:58.812Z,60.70
2023-05-02T09:02:42.736Z,60.10
2023-05-02T09:05:13.107Z,59.40
2023-05-02T09:07:48.585Z,59.40
2023-05-02T09:10:16.887Z,58.90
2023-05-02T09:12:46.417Z,58.40
2023-05-02T09:15:17.697Z,58.00
2023-05-02T09:17:49.795Z,57.80
2023-05-02T09:20:18.201Z,57.50
2023-05-02T09:22:53.062Z,58.20
2023-05-02T09:25:21.501Z,58.00
2023-05-02T09:27:56.274Z,57.50
2023-05-02T09:30:25.526Z,55.90
2023-05-02T09:32:55.643Z,56.30
2023-05-02T09:35:27.061Z,55.60
2023-05-02T09:37:55.770Z,55.30
2023-05-02T09:40:24.393Z,55.10
2023-05-02T09:42:52.463Z,54.70
2023-05-02T09:45:26.083Z,54.70
2023-05-02T09:47:54.819Z,52.90
2023-05-02T09:50:37.071Z,53.50
2023-05-02T09:53:06.482Z,52.50
2023-05-02T09:55:34.442Z,52.30
2023-05-02T09:58:02.674Z,51.70
2023-05-02T10:00:42.245Z,52.10
2023-05-02T10:03:11.487Z,51.30
2023-05-02T10:05:41.085Z,51.00
2023-05-02T10:08:10.450Z,50.70
2023-05-02T10:10:39.745Z,50.80
2023-05-02T10:13:08.761Z,50.80
2023-05-02T10:15:44.120Z,50.10
2023-05-02T10:18:18.783Z,49.90
2023-05-02T10:20:56.908Z,49.80
2023-05-02T10:23:27.979Z,49.90
2023-05-02T10:25:58.100Z,49.80
2023-05-02T10:28:28.194Z,49.60
2023-05-02T10:30:56.380Z,49.60
2023-05-02T10:33:26.152Z,49.70
2023-05-02T10:35:54.098Z,49.40
2023-05-02T10:38:24.718Z,49.30
2023-05-02T10:40:57.017Z,49.30
2023-05-02T10:43:26.890Z,49.50
2023-05-02T10:45:55.921Z,49.00
2023-05-02T10:48:26.805Z,49.00
2023-05-02T10:50:56.267Z,47.40
2023-05-02T10:53:36.394Z,48.20
2023-05-02T10:56:20.965Z,48.90
2023-05-02T10:58:50.677Z,48.40
2023-05-02T11:01:36.499Z,47.10
2023-05-02T11:04:07.248Z,47.10
2023-05-02T11:06:36.306Z,47.40
2023-05-02T11:09:31.913Z,46.90
2023-05-02T11:12:01.363Z,46.70
2023-05-02T11:14:47.792Z,47.30
2023-05-02T11:17:15.712Z,46.60
2023-05-02T11:20:28.106Z,47.10
2023-05-02T11:23:22.436Z,46.60
2023-05-02T11:25:51.792Z,45.90
2023-05-02T11:28:42.608Z,46.80
2023-05-02T11:31:31.658Z,45.90
2023-05-02T11:34:00.350Z,47.00
2023-05-02T11:36:33.384Z,47.10
2023-05-02T11:39:03.600Z,46.30
2023-05-02T11:41:40.720Z,46.10
2023-05-02T11:44:08.743Z,45.20
2023-05-02T11:46:38.552Z,45.40
2023-05-02T11:49:09.355Z,45.60
2023-05-02T11:51:38.148Z,45.50
2023-05-02T11:54:09.060Z,44.90
2023-05-02T11:56:37.036Z,44.80
2023-05-02T11:59:06.447Z,45.00
2023-05-02T12:01:34.259Z,45.10
2023-05-02T12:04:07.140Z,44.80
2023-05-02T12:06:35.804Z,44.70
2023-05-02T12:09:12.370Z,45.20
2023-05-02T12:11:40.238Z,45.80
2023-05-02T12:14:08.238Z,44.70
2023-05-02T12:16:36.621Z,44.60
2023-05-02T12:19:05.592Z,45.10
2023-05-02T12:21:33.809Z,45.10
2023-05-02T12:24:02.288Z,44.80
2023-05-02T12:26:32.985Z,45.00
2023-05-02T12:29:02.669Z,44.40
2023-05-02T12:31:32.110Z,43.80
2023-05-02T12:34:01.105Z,44.20
2023-05-02T12:36:29.856Z,44.70
2023-05-02T12:38:59.705Z,44.50
2023-05-02T12:41:35.214Z,44.20
2023-05-02T12:44:03.642Z,45.20
2023-05-02T12:46:32.361Z,44.30
2023-05-02T12:49:05.630Z,43.50
2023-05-02T12:51:34.651Z,43.90
2023-05-02T12:54:02.758Z,43.90
2023-05-02T12:56:33.130Z,44.50
2023-05-02T12:59:05.736Z,43.90
2023-05-02T13:01:34.943Z,43.10
2023-05-02T13:04:03.174Z,43.60
2023-05-02T13:06:31.245Z,43.40
2023-05-02T13:08:59.177Z,42.90
2023-05-02T13:11:27.075Z,43.30
2023-05-02T13:13:55.802Z,43.10
2023-05-02T13:16:25.935Z,44.00
2023-05-02T13:18:54.201Z,42.70
2023-05-02T13:21:22.105Z,43.10
2023-05-02T13:23:50.832Z,42.90
2023-05-02T13:26:19.265Z,41.70
2023-05-02T13:28:47.020Z,41.40
2023-05-02T13:31:15.725Z,41.70
2023-05-02T13:33:45.315Z,42.20
2023-05-02T13:36:13.136Z,42.40
2023-05-02T13:38:41.021Z,42.50
2023-05-02T13:41:08.854Z,42.50
2023-05-02T13:43:36.739Z,42.80
2023-05-02T13:46:04.681Z,43.00
2023-05-02T13:48:32.497Z,40.70
2023-05-02T13:51:01.685Z,40.70
2023-05-02T13:53:29.532Z,41.50
2023-05-02T13:55:57.363Z,41.50
2023-05-02T13:58:25.192Z,41.50
2023-05-02T14:00:53.164Z,41.60
2023-05-02T14:03:21.102Z,41.80
2023-05-02T14:05:49.206Z,41.40
2023-05-02T14:08:19.211Z,40.80
2023-05-02T14:10:47.288Z,41.30
2023-05-02T14:13:15.673Z,41.50
2023-05-02T14:15:43.609Z,41.90
2023-05-02T14:18:11.668Z,41.50
2023-05-02T14:20:39.551Z,41.00
2023-05-02T14:23:07.755Z,41.60
2023-05-02T14:25:37.426Z,41.20
2023-05-02T14:28:05.900Z,41.40
2023-05-02T14:30:33.790Z,41.40
2023-05-02T14:33:01.803Z,41.00
2023-05-02T14:35:29.733Z,41.40
2023-05-02T14:37:57.594Z,41.50
2023-05-02T14:40:25.427Z,40.90
2023-05-02T14:42:54.572Z,40.60
2023-05-02T14:45:23.188Z,41.00
2023-05-02T14:47:51.420Z,41.50
2023-05-02T14:50:19.419Z,40.90
2023-05-02T14:52:47.579Z,41.20
2023-05-02T14:55:16.042Z,41.30
2023-05-02T14:57:44.142Z,41.20
2023-05-02T15:00:15.257Z,41.30
2023-05-02T15:02:43.173Z,41.00
2023-05-02T15:05:12.536Z,40.10
2023-05-02T15:07:40.694Z,39.60
2023-05-02T15:10:10.582Z,39.20
2023-05-02T15:12:38.471Z,38.90
2023-05-02T15:15:09.024Z,39.20
2023-05-02T15:17:38.267Z,38.90
2023-05-02T15:20:07.242Z,38.90
2023-05-02T15:22:35.074Z,38.70
2023-05-02T15:25:04.600Z,39.10
2023-05-02T15:27:33.117Z,38.90
2023-05-02T15:30:02.757Z,39.30
2023-05-02T15:32:31.242Z,38.50
2023-05-02T15:35:00.447Z,38.10
2023-05-02T15:37:28.287Z,37.60
2023-05-02T15:39:56.221Z,37.90
2023-05-02T15:42:24.119Z,37.90
2023-05-02T15:44:53.862Z,37.30
2023-05-02T15:47:23.087Z,38.10
2023-05-02T15:49:53.895Z,37.50
2023-05-02T15:52:23.171Z,37.30
2023-05-02T15:54:51.743Z,36.80
2023-05-02T15:57:19.841Z,36.40
2023-05-02T15:59:47.934Z,36.30
2023-05-02T16:02:15.755Z,36.50
2023-05-02T16:04:43.711Z,36.20
2023-05-02T16:07:11.675Z,35.80
2023-05-02T16:09:42.121Z,33.80
2023-05-02T16:12:09.954Z,33.90
2023-05-02T16:14:37.771Z,35.20
2023-05-02T16:17:05.655Z,35.30
2023-05-02T16:19:34.182Z,35.00
2023-05-02T16:22:02.332Z,34.90
2023-05-02T16:24:30.084Z,34.50
2023-05-02T16:26:59.243Z,34.50
2023-05-02T16:29:27.077Z,33.40
2023-05-02T16:31:54.963Z,33.10
2023-05-02T16:34:22.814Z,32.90
2023-05-02T16:36:51.420Z,32.60
2023-05-02T16:39:19.219Z,32.50
2023-05-02T16:41:47.227Z,32.70
2023-05-02T16:44:16.483Z,32.70
2023-05-02T16:46:44.478Z,32.90
2023-05-02T16:49:12.594Z,33.30
2023-05-02T16:51:40.468Z,34.90
2023-05-02T16:54:08.273Z,33.90
2023-05-02T16:56:36.097Z,34.00
2023-05-02T16:59:04.018Z,34.40
2023-05-02T17:01:35.419Z,35.00
2023-05-02T17:04:04.162Z,35.80
2023-05-02T17:06:32.596Z,36.10
2023-05-02T17:09:00.549Z,36.00
2023-05-02T17:11:28.558Z,36.50
2023-05-02T17:13:56.423Z,36.80
2023-05-02T17:16:24.231Z,36.70
2023-05-02T17:18:53.548Z,36.70
2023-05-02T17:21:21.596Z,36.70
2023-05-02T17:23:49.752Z,37.10
2023-05-02T17:26:17.559Z,37.30
2023-05-02T17:28:45.925Z,37.50
2023-05-02T17:31:14.091Z,37.70
2023-05-02T17:33:42.389Z,37.80
2023-05-02T17:36:11.724Z,38.30
2023-05-02T17:38:39.616Z,38.50
2023-05-02T17:41:07.489Z,38.50
2023-05-02T17:43:35.733Z,38.80
2023-05-02T17:46:08.437Z,38.90
2023-05-02T17:48:36.867Z,39.20
2023-05-02T17:51:05.608Z,40.00
2023-05-02T17:53:35.405Z,40.10
2023-05-02T17:56:03.719Z,40.60
2023-05-02T17:58:31.905Z,40.90
2023-05-02T18:01:07.204Z,40.70
2023-05-02T18:03:35.428Z,41.10
2023-05-02T18:06:03.454Z,41.10
2023-05-02T18:08:31.822Z,42.10
2023-05-02T18:11:03.114Z,41.90
2023-05-02T18:13:31.176Z,42.10
2023-05-02T18:15:59.729Z,41.80
2023-05-02T18:18:27.811Z,41.80
2023-05-02T18:20:55.797Z,41.70
2023-05-02T18:23:23.740Z,41.90
2023-05-02T18:25:52.289Z,42.10
2023-05-02T18:28:21.628Z,42.10
2023-05-02T18:30:50.168Z,42.90
2023-05-02T18:33:17.947Z,42.40
2023-05-02T18:35:50.132Z,42.50
2023-05-02T18:38:18.138Z,42.50
2023-05-02T18:40:46.100Z,42.70
2023-05-02T18:43:14.457Z,42.70
2023-05-02T18:45:44.607Z,42.80
2023-05-02T18:48:12.857Z,42.90
2023-05-02T18:50:40.685Z,42.80
2023-05-02T18:53:08.513Z,43.10
2023-05-02T18:55:36.350Z,43.80
2023-05-02T18:58:04.208Z,43.40
2023-05-02T19:00:34.357Z,43.40
2023-05-02T19:03:04.999Z,43.60
2023-05-02T19:05:34.723Z,43.70
2023-05-02T19:08:03.344Z,43.80
2023-05-02T19:10:31.945Z,43.90
2023-05-02T19:13:00.053Z,44.00
2023-05-02T19:15:28.119Z,44.10
2023-05-02T19:17:56.928Z,44.20
2023-05-02T19:20:28.401Z,44.40
2023-05-02T19:23:10.992Z,44.80
2023-05-02T19:25:45.122Z,44.70
2023-05-02T19:28:15.949Z,44.60
2023-05-02T19:30:43.948Z,44.70
2023-05-02T19:33:12.106Z,45.00
2023-05-02T19:35:41.628Z,44.90
2023-05-02T19:38:09.390Z,45.20
2023-05-02T19:40:37.193Z,45.10
2023-05-02T19:43:05.030Z,45.30
2023-05-02T19:45:32.928Z,45.40
2023-05-02T19:48:00.864Z,45.40
2023-05-02T19:50:28.706Z,45.50
2023-05-02T19:52:57.993Z,45.50
2023-05-02T19:55:25.868Z,45.60
2023-05-02T19:57:53.679Z,45.70
2023-05-02T20:00:21.609Z,45.80
2023-05-02T20:02:51.447Z,45.90
2023-05-02T20:05:19.869Z,45.90
2023-05-02T20:07:47.737Z,46.10
2023-05-02T20:10:18.231Z,46.20
2023-05-02T20:12:46.869Z,46.50
2023-05-02T20:15:15.990Z,46.20
2023-05-02T20:17:43.955Z,46.70
2023-05-02T20:20:12.891Z,46.80
2023-05-02T20:22:41.055Z,47.00
2023-05-02T20:25:11.527Z,47.00
2023-05-02T20:27:40.867Z,47.30
2023-05-02T20:30:09.933Z,47.30
2023-05-02T20:32:38.153Z,47.40
2023-05-02T20:35:07.100Z,47.40
2023-05-02T20:37:34.986Z,47.60
2023-05-02T20:40:04.420Z,47.80
2023-05-02T20:42:33.328Z,48.00
2023-05-02T20:45:04.900Z,48.10
2023-05-02T20:47:33.193Z,48.30
2023-05-02T20:50:01.313Z,48.20
2023-05-02T20:52:30.769Z,48.50
2023-05-02T20:55:01.373Z,48.50
2023-05-02T20:57:29.179Z,48.60
2023-05-02T20:59:59.429Z,49.10
2023-05-02T21:02:28.768Z,49.00
2023-05-02T21:04:56.922Z,49.10
2023-05-02T21:07:24.947Z,49.30
2023-05-02T21:09:52.753Z,49.40
2023-05-02T21:12:20.600Z,49.40
2023-05-02T21:14:48.928Z,49.60
2023-05-02T21:17:17.022Z,49.70
2023-05-02T21:19:46.224Z,49.70
2023-05-02T21:22:14.134Z,49.90
2023-05-02T21:24:42.040Z,49.90
2023-05-02T21:27:09.907Z,50.10
2023-05-02T21:29:37.740Z,50.20
2023-05-02T21:32:06.562Z,50.20
2023-05-02T21:34:34.451Z,50.50
2023-05-02T21:37:03.609Z,50.60
2023-05-02T21:39:31.512Z,50.70
2023-05-02T21:41:59.276Z,50.90
2023-05-02T21:44:27.114Z,50.90
2023-05-02T21:46:54.980Z,51.20
2023-05-02T21:49:22.909Z,51.00
2023-05-02T21:51:51.233Z,50.90
2023-05-02T21:54:20.418Z,51.00
2023-05-02T21:56:48.673Z,51.10
2023-05-02T21:59:16.804Z,51.10
2023-05-02T22:01:44.844Z,51.00
2023-05-02T22:04:13.492Z,51.50
2023-05-02T22:06:41.407Z,51.90
2023-05-02T22:09:10.531Z,51.90
2023-05-02T22:11:39.762Z,51.70
2023-05-02T22:14:07.657Z,52.20
2023-05-02T22:16:35.497Z,52.10
2023-05-02T22:19:03.467Z,52.20
2023-05-02T22:21:31.522Z,52.20
2023-05-02T22:23:59.529Z,52.30
2023-05-02T22:26:27.381Z,52.40
2023-05-02T22:28:56.542Z,52.30
2023-05-02T22:31:24.365Z,52.60
2023-05-02T22:33:52.326Z,52.50
2023-05-02T22:36:20.376Z,52.60
2023-05-02T22:38:48.568Z,52.80
2023-05-02T22:41:16.400Z,52.90
2023-05-02T22:43:44.321Z,52.90
2023-05-02T22:46:13.638Z,53.20
2023-05-02T22:48:41.520Z,53.50
2023-05-02T22:51:09.565Z,53.70
2023-05-02T22:53:37.409Z,53.50
2023-05-02T22:56:05.755Z,53.70
2023-05-02T22:58:33.635Z,53.60
2023-05-02T23:01:02.388Z,53.90
2023-05-02T23:03:31.813Z,53.50
2023-05-02T23:05:59.796Z,54.20
2023-05-02T23:08:27.640Z,54.30
2023-05-02T23:10:55.938Z,54.20
2023-05-02T23:13:23.832Z,54.40
2023-05-02T23:15:54.424Z,54.50
2023-05-02T23:18:22.394Z,54.50
2023-05-02T23:20:52.032Z,54.40
2023-05-02T23:23:20.003Z,54.50
2023-05-02T23:25:47.898Z,54.60
2023-05-02T23:28:15.889Z,54.70
2023-05-02T23:30:43.862Z,54.80
2023-05-02T23:33:11.760Z,55.10
2023-05-02T23:35:39.648Z,55.20
2023-05-02T23:38:08.973Z,55.30
2023-05-02T23:40:36.894Z,55.50
2023-05-02T23:43:04.999Z,55.50
2023-05-02T23:45:32.839Z,55.60
2023-05-02T23:48:00.756Z,55.90
2023-05-02T23:50:28.705Z,56.00
2023-05-02T23:52:56.540Z,56.10
2023-05-02T23:55:25.689Z,56.30
2023-05-02T23:57:53.479Z,56.40
